Check out our new PWSWeather beta!
PWSweather.com
Personal Weather Stations
Station Observations
ILOMBARD30
LodiIT 26900

LodiIT 26900

Lat: 45.2993, Lon: 9.5207

Elevation: 255

Station Type: Davis Vantege Pro2 Plus 24h

http://www.meteo-iw2gob.it

High Low Average
Temperature 84.7°F29.3°C 69.5°F20.8°C 75.3°F24.1°C
Dew Point 70.8°F21.6°C 64.0°F17.8°C 67.3°F19.6°C
Winds 12.7 mph 20.4 kmh Calm Calm 4.0 mph ESE6.4 kmh ESE
Wind Gusts 20.7 mph33.3 kmh -- 6.0 mph9.7 kmh
Humidity 91% 60% 77%
Pressure 29.87 in1011.5 mb 29.69 in1005.4 mb -
Precipitation 0.00 in0.0 mm - -
Hour Temp Dew Point Humidity Winds Wind Gusts Pressure Precip Precip Rate Daily Precip Total
12:00 AM 74.2°F23.4°C 65.4°F18.6°C 74% 4.6 mph N7.4 kmh N 10.4 mph16.7 kmh 29.86 in1011.2 mb - 0.00 in0.0 mm 0.00 in0.0 mm
12:05 AM 74.1°F23.4°C 65.3°F18.5°C 74% 6.9 mph NNE11.1 kmh NNE 10.4 mph16.7 kmh 29.87 in1011.5 mb - 0.00 in0.0 mm 0.00 in0.0 mm
12:10 AM 74.0°F23.3°C 65.2°F18.4°C 74% 6.9 mph N11.1 kmh N 9.2 mph14.8 kmh 29.87 in1011.5 mb - 0.00 in0.0 mm 0.00 in0.0 mm
12:15 AM 73.9°F23.3°C 65.5°F18.6°C 75% 5.8 mph N9.3 kmh N 6.9 mph11.1 kmh 29.87 in1011.5 mb - 0.00 in0.0 mm 0.00 in0.0 mm
12:20 AM 73.7°F23.2°C 65.3°F18.5°C 75% 5.8 mph N9.3 kmh N 8.1 mph13.0 kmh 29.87 in1011.5 mb - 0.00 in0.0 mm 0.00 in0.0 mm
12:25 AM 73.4°F23.0°C 65.0°F18.3°C 75% 6.9 mph N11.1 kmh N 9.2 mph14.8 kmh 29.87 in1011.5 mb - 0.00 in0.0 mm 0.00 in0.0 mm
12:30 AM 73.2°F22.9°C 64.8°F18.2°C 75% 3.5 mph NE5.6 kmh NE 9.2 mph14.8 kmh 29.87 in1011.5 mb - 0.00 in0.0 mm 0.00 in0.0 mm
12:35 AM 73.1°F22.8°C 64.3°F17.9°C 74% 3.5 mph NE5.6 kmh NE 4.6 mph7.4 kmh 29.87 in1011.5 mb - 0.00 in0.0 mm 0.00 in0.0 mm
12:40 AM 73.0°F22.8°C 64.2°F17.9°C 74% 4.6 mph NE7.4 kmh NE 6.9 mph11.1 kmh 29.86 in1011.2 mb - 0.00 in0.0 mm 0.00 in0.0 mm
12:45 AM 73.0°F22.8°C 64.2°F17.9°C 74% 3.5 mph NE5.6 kmh NE 3.5 mph5.6 kmh 29.86 in1011.2 mb - 0.00 in0.0 mm 0.00 in0.0 mm
12:50 AM 72.9°F22.7°C 64.1°F17.8°C 74% 2.3 mph N3.7 kmh N 4.6 mph7.4 kmh 29.86 in1011.2 mb - 0.00 in0.0 mm 0.00 in0.0 mm
12:55 AM 72.9°F22.7°C 64.1°F17.8°C 74% 3.5 mph N5.6 kmh N 5.8 mph9.3 kmh 29.87 in1011.5 mb - 0.00 in0.0 mm 0.00 in0.0 mm
01:00 AM 72.8°F22.7°C 64.0°F17.8°C 74% 1.2 mph ENE1.9 kmh ENE 2.3 mph3.7 kmh 29.86 in1011.2 mb - 0.00 in0.0 mm 0.00 in0.0 mm
01:05 AM 72.8°F22.7°C 64.1°F17.8°C 74% 2.3 mph ENE3.7 kmh ENE 4.6 mph7.4 kmh 29.86 in1011.2 mb - 0.00 in0.0 mm 0.00 in0.0 mm
01:10 AM 72.9°F22.7°C 64.1°F17.8°C 74% 2.3 mph ENE3.7 kmh ENE 4.6 mph7.4 kmh 29.86 in1011.2 mb - 0.00 in0.0 mm 0.00 in0.0 mm
01:15 AM 72.9°F22.7°C 64.1°F17.8°C 74% 3.5 mph ENE5.6 kmh ENE 3.5 mph5.6 kmh 29.86 in1011.2 mb - 0.00 in0.0 mm 0.00 in0.0 mm
01:20 AM 72.9°F22.7°C 64.1°F17.8°C 74% 2.3 mph E3.7 kmh E 3.5 mph5.6 kmh 29.86 in1011.2 mb - 0.00 in0.0 mm 0.00 in0.0 mm
01:25 AM 72.9°F22.7°C 64.1°F17.8°C 74% 1.2 mph NE1.9 kmh NE 3.5 mph5.6 kmh 29.86 in1011.2 mb - 0.00 in0.0 mm 0.00 in0.0 mm
01:30 AM 72.8°F22.7°C 64.0°F17.8°C 74% 2.3 mph E3.7 kmh E 4.6 mph7.4 kmh 29.86 in1011.2 mb - 0.00 in0.0 mm 0.00 in0.0 mm
01:35 AM 72.9°F22.7°C 64.1°F17.8°C 74% 2.3 mph ESE3.7 kmh ESE 6.9 mph11.1 kmh 29.86 in1011.2 mb - 0.00 in0.0 mm 0.00 in0.0 mm
01:40 AM 73.1°F22.8°C 64.3°F17.9°C 74% 3.5 mph ESE5.6 kmh ESE 3.5 mph5.6 kmh 29.86 in1011.2 mb - 0.00 in0.0 mm 0.00 in0.0 mm
01:45 AM 73.3°F22.9°C 64.9°F18.3°C 75% 5.8 mph SE9.3 kmh SE 6.9 mph11.1 kmh 29.86 in1011.2 mb - 0.00 in0.0 mm 0.00 in0.0 mm
01:50 AM 73.5°F23.1°C 65.1°F18.4°C 75% 6.9 mph SE11.1 kmh SE 8.1 mph13.0 kmh 29.86 in1011.2 mb - 0.00 in0.0 mm 0.00 in0.0 mm
01:55 AM 73.6°F23.1°C 65.2°F18.4°C 75% 4.6 mph SE7.4 kmh SE 10.4 mph16.7 kmh 29.86 in1011.2 mb - 0.00 in0.0 mm 0.00 in0.0 mm
02:00 AM 73.6°F23.1°C 65.2°F18.4°C 75% 3.5 mph SE5.6 kmh SE 4.6 mph7.4 kmh 29.86 in1011.2 mb - 0.00 in0.0 mm 0.00 in0.0 mm
02:05 AM 73.7°F23.2°C 65.3°F18.5°C 75% 4.6 mph SE7.4 kmh SE 6.9 mph11.1 kmh 29.86 in1011.2 mb - 0.00 in0.0 mm 0.00 in0.0 mm
02:10 AM 73.7°F23.2°C 65.3°F18.5°C 75% 3.5 mph SE5.6 kmh SE 6.9 mph11.1 kmh 29.86 in1011.2 mb - 0.00 in0.0 mm 0.00 in0.0 mm
02:15 AM 73.7°F23.2°C 65.7°F18.7°C 76% 3.5 mph ESE5.6 kmh ESE 6.9 mph11.1 kmh 29.86 in1011.2 mb - 0.00 in0.0 mm 0.00 in0.0 mm
02:20 AM 73.6°F23.1°C 65.6°F18.7°C 76% 4.6 mph ESE7.4 kmh ESE 6.9 mph11.1 kmh 29.86 in1011.2 mb - 0.00 in0.0 mm 0.00 in0.0 mm
02:25 AM 73.5°F23.1°C 65.8°F18.8°C 77% 5.8 mph E9.3 kmh E 8.1 mph13.0 kmh 29.86 in1011.2 mb - 0.00 in0.0 mm 0.00 in0.0 mm
02:30 AM 73.3°F22.9°C 65.7°F18.7°C 77% 3.5 mph SE5.6 kmh SE 3.5 mph5.6 kmh 29.86 in1011.2 mb - 0.00 in0.0 mm 0.00 in0.0 mm
02:35 AM 73.2°F22.9°C 65.9°F18.8°C 78% 2.3 mph E3.7 kmh E 3.5 mph5.6 kmh 29.86 in1011.2 mb - 0.00 in0.0 mm 0.00 in0.0 mm
02:40 AM 73.1°F22.8°C 66.2°F19.0°C 79% 3.5 mph ESE5.6 kmh ESE 4.6 mph7.4 kmh 29.86 in1011.2 mb - 0.00 in0.0 mm 0.00 in0.0 mm
02:45 AM 73.0°F22.8°C 66.1°F18.9°C 79% 2.3 mph SE3.7 kmh SE 3.5 mph5.6 kmh 29.86 in1011.2 mb - 0.00 in0.0 mm 0.00 in0.0 mm
02:50 AM 73.0°F22.8°C 66.5°F19.2°C 80% 3.5 mph SE5.6 kmh SE 3.5 mph5.6 kmh 29.86 in1011.2 mb - 0.00 in0.0 mm 0.00 in0.0 mm
02:55 AM 72.9°F22.7°C 66.8°F19.3°C 81% 4.6 mph SE7.4 kmh SE 6.9 mph11.1 kmh 29.86 in1011.2 mb - 0.00 in0.0 mm 0.00 in0.0 mm
03:00 AM 72.8°F22.7°C 66.7°F19.3°C 81% 3.5 mph SE5.6 kmh SE 4.6 mph7.4 kmh 29.86 in1011.2 mb - 0.00 in0.0 mm 0.00 in0.0 mm
03:05 AM 72.8°F22.7°C 66.6°F19.2°C 81% 2.3 mph SE3.7 kmh SE 6.9 mph11.1 kmh 29.86 in1011.2 mb - 0.00 in0.0 mm 0.00 in0.0 mm
03:10 AM 72.7°F22.6°C 66.9°F19.4°C 82% 4.6 mph SE7.4 kmh SE 4.6 mph7.4 kmh 29.86 in1011.2 mb - 0.00 in0.0 mm 0.00 in0.0 mm
03:15 AM 72.6°F22.6°C 66.8°F19.3°C 82% 2.3 mph SE3.7 kmh SE 3.5 mph5.6 kmh 29.86 in1011.2 mb - 0.00 in0.0 mm 0.00 in0.0 mm
03:20 AM 72.6°F22.6°C 66.8°F19.3°C 82% 4.6 mph SE7.4 kmh SE 6.9 mph11.1 kmh 29.86 in1011.2 mb - 0.00 in0.0 mm 0.00 in0.0 mm
03:25 AM 72.5°F22.5°C 66.7°F19.3°C 82% 2.3 mph SE3.7 kmh SE 3.5 mph5.6 kmh 29.85 in1010.8 mb - 0.00 in0.0 mm 0.00 in0.0 mm
03:30 AM 72.4°F22.4°C 66.6°F19.2°C 82% 3.5 mph E5.6 kmh E 6.9 mph11.1 kmh 29.85 in1010.8 mb - 0.00 in0.0 mm 0.00 in0.0 mm
03:35 AM 72.3°F22.4°C 66.5°F19.2°C 82% 3.5 mph ESE5.6 kmh ESE 8.1 mph13.0 kmh 29.85 in1010.8 mb - 0.00 in0.0 mm 0.00 in0.0 mm
03:40 AM 72.2°F22.3°C 66.7°F19.3°C 83% 3.5 mph E5.6 kmh E 4.6 mph7.4 kmh 29.85 in1010.8 mb - 0.00 in0.0 mm 0.00 in0.0 mm
03:45 AM 72.1°F22.3°C 66.6°F19.2°C 83% 3.5 mph SE5.6 kmh SE 3.5 mph5.6 kmh 29.84 in1010.5 mb - 0.00 in0.0 mm 0.00 in0.0 mm
03:50 AM 72.0°F22.2°C 66.6°F19.2°C 83% 3.5 mph ESE5.6 kmh ESE 4.6 mph7.4 kmh 29.84 in1010.5 mb - 0.00 in0.0 mm 0.00 in0.0 mm
03:55 AM 71.9°F22.2°C 66.5°F19.2°C 83% 2.3 mph E3.7 kmh E 4.6 mph7.4 kmh 29.85 in1010.8 mb - 0.00 in0.0 mm 0.00 in0.0 mm
04:00 AM 71.8°F22.1°C 66.4°F19.1°C 83% 2.3 mph SE3.7 kmh SE 3.5 mph5.6 kmh 29.85 in1010.8 mb - 0.00 in0.0 mm 0.00 in0.0 mm
04:05 AM 71.7°F22.1°C 66.3°F19.1°C 83% 3.5 mph ESE5.6 kmh ESE 4.6 mph7.4 kmh 29.85 in1010.8 mb - 0.00 in0.0 mm 0.00 in0.0 mm
04:10 AM 71.7°F22.1°C 66.6°F19.2°C 84% 2.3 mph ESE3.7 kmh ESE 3.5 mph5.6 kmh 29.85 in1010.8 mb - 0.00 in0.0 mm 0.00 in0.0 mm
04:15 AM 71.7°F22.1°C 66.6°F19.2°C 84% 2.3 mph NE3.7 kmh NE 3.5 mph5.6 kmh 29.85 in1010.8 mb - 0.00 in0.0 mm 0.00 in0.0 mm
04:20 AM 71.6°F22.0°C 66.5°F19.2°C 84% 2.3 mph NE3.7 kmh NE 3.5 mph5.6 kmh 29.85 in1010.8 mb - 0.00 in0.0 mm 0.00 in0.0 mm
04:25 AM 71.4°F21.9°C 66.7°F19.3°C 85% 1.2 mph NE1.9 kmh NE 1.2 mph1.9 kmh 29.85 in1010.8 mb - 0.00 in0.0 mm 0.00 in0.0 mm
04:30 AM 71.3°F21.8°C 66.6°F19.2°C 85% 2.3 mph NE3.7 kmh NE 3.5 mph5.6 kmh 29.85 in1010.8 mb - 0.00 in0.0 mm 0.00 in0.0 mm
04:35 AM 71.1°F21.7°C 66.3°F19.1°C 85% 1.2 mph NE1.9 kmh NE 3.5 mph5.6 kmh 29.85 in1010.8 mb - 0.00 in0.0 mm 0.00 in0.0 mm
04:40 AM 70.9°F21.6°C 66.5°F19.2°C 86% 1.2 mph NE1.9 kmh NE 2.3 mph3.7 kmh 29.85 in1010.8 mb - 0.00 in0.0 mm 0.00 in0.0 mm
04:45 AM 70.7°F21.5°C 66.3°F19.1°C 86% 2.3 mph NE3.7 kmh NE 3.5 mph5.6 kmh 29.85 in1010.8 mb - 0.00 in0.0 mm 0.00 in0.0 mm
04:50 AM 70.6°F21.4°C 66.2°F19.0°C 86% 2.3 mph NE3.7 kmh NE 3.5 mph5.6 kmh 29.85 in1010.8 mb - 0.00 in0.0 mm 0.00 in0.0 mm
04:55 AM 70.4°F21.3°C 66.3°F19.1°C 87% 1.2 mph ENE1.9 kmh ENE 3.5 mph5.6 kmh 29.84 in1010.5 mb - 0.00 in0.0 mm 0.00 in0.0 mm
05:00 AM 70.3°F21.3°C 66.2°F19.0°C 87% 4.6 mph E7.4 kmh E 4.6 mph7.4 kmh 29.84 in1010.5 mb - 0.00 in0.0 mm 0.00 in0.0 mm
05:05 AM 70.2°F21.2°C 66.5°F19.2°C 88% 2.3 mph ENE3.7 kmh ENE 3.5 mph5.6 kmh 29.84 in1010.5 mb - 0.00 in0.0 mm 0.00 in0.0 mm
05:10 AM 70.1°F21.2°C 66.4°F19.1°C 88% 1.2 mph E1.9 kmh E 4.6 mph7.4 kmh 29.83 in1010.2 mb - 0.00 in0.0 mm 0.00 in0.0 mm
05:15 AM 70.0°F21.1°C 66.3°F19.1°C 88% 3.5 mph NE5.6 kmh NE 4.6 mph7.4 kmh 29.84 in1010.5 mb - 0.00 in0.0 mm 0.00 in0.0 mm
05:20 AM 69.9°F21.1°C 66.2°F19.0°C 88% 2.3 mph ENE3.7 kmh ENE 2.3 mph3.7 kmh 29.84 in1010.5 mb - 0.00 in0.0 mm 0.00 in0.0 mm
05:25 AM 69.9°F21.1°C 66.2°F19.0°C 88% 1.2 mph NE1.9 kmh NE 2.3 mph3.7 kmh 29.84 in1010.5 mb - 0.00 in0.0 mm 0.00 in0.0 mm
05:30 AM 69.9°F21.1°C 66.2°F19.0°C 88% Calm Calm -- 29.85 in1010.8 mb - 0.00 in0.0 mm 0.00 in0.0 mm
05:35 AM 70.0°F21.1°C 66.3°F19.1°C 88% Calm Calm -- 29.85 in1010.8 mb - 0.00 in0.0 mm 0.00 in0.0 mm
05:40 AM 70.0°F21.1°C 66.3°F19.1°C 88% 1.2 mph ENE1.9 kmh ENE 2.3 mph3.7 kmh 29.84 in1010.5 mb - 0.00 in0.0 mm 0.00 in0.0 mm
05:45 AM 70.1°F21.2°C 66.4°F19.1°C 88% 2.3 mph ENE3.7 kmh ENE 3.5 mph5.6 kmh 29.84 in1010.5 mb - 0.00 in0.0 mm 0.00 in0.0 mm
05:50 AM 70.2°F21.2°C 66.5°F19.2°C 88% 2.3 mph ESE3.7 kmh ESE 3.5 mph5.6 kmh 29.84 in1010.5 mb - 0.00 in0.0 mm 0.00 in0.0 mm
05:55 AM 70.4°F21.3°C 66.7°F19.3°C 88% 2.3 mph ESE3.7 kmh ESE 3.5 mph5.6 kmh 29.83 in1010.2 mb - 0.00 in0.0 mm 0.00 in0.0 mm
06:00 AM 70.5°F21.4°C 66.8°F19.3°C 88% 3.5 mph ESE5.6 kmh ESE 3.5 mph5.6 kmh 29.83 in1010.2 mb - 0.00 in0.0 mm 0.00 in0.0 mm
06:05 AM 70.6°F21.4°C 66.5°F19.2°C 87% 2.3 mph SE3.7 kmh SE 3.5 mph5.6 kmh 29.84 in1010.5 mb - 0.00 in0.0 mm 0.00 in0.0 mm
06:10 AM 70.7°F21.5°C 66.6°F19.2°C 87% 1.2 mph SE1.9 kmh SE 2.3 mph3.7 kmh 29.84 in1010.5 mb - 0.00 in0.0 mm 0.00 in0.0 mm
06:15 AM 70.9°F21.6°C 66.8°F19.3°C 87% 2.3 mph SE3.7 kmh SE 3.5 mph5.6 kmh 29.84 in1010.5 mb - 0.00 in0.0 mm 0.00 in0.0 mm
06:20 AM 71.0°F21.7°C 66.9°F19.4°C 87% Calm Calm -- 29.84 in1010.5 mb - 0.00 in0.0 mm 0.00 in0.0 mm
06:25 AM 71.1°F21.7°C 66.7°F19.3°C 86% Calm Calm -- 29.84 in1010.5 mb - 0.00 in0.0 mm 0.00 in0.0 mm
06:30 AM 71.2°F21.8°C 66.8°F19.3°C 86% 1.2 mph SE1.9 kmh SE 3.5 mph5.6 kmh 29.85 in1010.8 mb - 0.00 in0.0 mm 0.00 in0.0 mm
06:35 AM 71.3°F21.8°C 66.9°F19.4°C 86% 1.2 mph SE1.9 kmh SE 2.3 mph3.7 kmh 29.84 in1010.5 mb - 0.00 in0.0 mm 0.00 in0.0 mm
06:40 AM 71.3°F21.8°C 66.9°F19.4°C 86% 1.2 mph SE1.9 kmh SE 2.3 mph3.7 kmh 29.84 in1010.5 mb - 0.00 in0.0 mm 0.00 in0.0 mm
06:45 AM 71.3°F21.8°C 66.9°F19.4°C 86% 1.2 mph SE1.9 kmh SE 1.2 mph1.9 kmh 29.85 in1010.8 mb - 0.00 in0.0 mm 0.00 in0.0 mm
06:50 AM 71.3°F21.8°C 66.9°F19.4°C 86% 1.2 mph SE1.9 kmh SE 2.3 mph3.7 kmh 29.85 in1010.8 mb - 0.00 in0.0 mm 0.00 in0.0 mm
06:55 AM 71.3°F21.8°C 66.9°F19.4°C 86% 1.2 mph SE1.9 kmh SE 3.5 mph5.6 kmh 29.85 in1010.8 mb - 0.00 in0.0 mm 0.00 in0.0 mm
07:00 AM 71.3°F21.8°C 66.9°F19.4°C 86% 2.3 mph SE3.7 kmh SE 3.5 mph5.6 kmh 29.84 in1010.5 mb - 0.00 in0.0 mm 0.00 in0.0 mm
07:05 AM 71.4°F21.9°C 67.0°F19.4°C 86% 1.2 mph ESE1.9 kmh ESE 3.5 mph5.6 kmh 29.84 in1010.5 mb - 0.00 in0.0 mm 0.00 in0.0 mm
07:10 AM 71.6°F22.0°C 66.8°F19.3°C 85% 3.5 mph SE5.6 kmh SE 4.6 mph7.4 kmh 29.85 in1010.8 mb - 0.00 in0.0 mm 0.00 in0.0 mm
07:15 AM 71.8°F22.1°C 67.0°F19.4°C 85% 3.5 mph ESE5.6 kmh ESE 3.5 mph5.6 kmh 29.84 in1010.5 mb - 0.00 in0.0 mm 0.00 in0.0 mm
07:20 AM 72.1°F22.3°C 67.0°F19.4°C 84% 3.5 mph SE5.6 kmh SE 3.5 mph5.6 kmh 29.84 in1010.5 mb - 0.00 in0.0 mm 0.00 in0.0 mm
07:25 AM 72.3°F22.4°C 67.2°F19.6°C 84% 1.2 mph SE1.9 kmh SE 5.8 mph9.3 kmh 29.84 in1010.5 mb - 0.00 in0.0 mm 0.00 in0.0 mm
07:30 AM 72.5°F22.5°C 67.0°F19.4°C 83% 4.6 mph SE7.4 kmh SE 6.9 mph11.1 kmh 29.84 in1010.5 mb - 0.00 in0.0 mm 0.00 in0.0 mm
07:35 AM 72.7°F22.6°C 66.9°F19.4°C 82% 4.6 mph SSE7.4 kmh SSE 5.8 mph9.3 kmh 29.84 in1010.5 mb - 0.00 in0.0 mm 0.00 in0.0 mm
07:40 AM 72.9°F22.7°C 67.1°F19.5°C 82% 3.5 mph SE5.6 kmh SE 4.6 mph7.4 kmh 29.84 in1010.5 mb - 0.00 in0.0 mm 0.00 in0.0 mm
07:45 AM 73.2°F22.9°C 67.0°F19.4°C 81% 3.5 mph SE5.6 kmh SE 4.6 mph7.4 kmh 29.84 in1010.5 mb - 0.00 in0.0 mm 0.00 in0.0 mm
07:50 AM 73.5°F23.1°C 66.9°F19.4°C 80% 4.6 mph SE7.4 kmh SE 5.8 mph9.3 kmh 29.84 in1010.5 mb - 0.00 in0.0 mm 0.00 in0.0 mm
07:55 AM 73.4°F23.0°C 66.5°F19.2°C 79% 2.3 mph SE3.7 kmh SE 3.5 mph5.6 kmh 29.84 in1010.5 mb - 0.00 in0.0 mm 0.00 in0.0 mm
08:00 AM 73.5°F23.1°C 66.9°F19.4°C 80% 2.3 mph SE3.7 kmh SE 3.5 mph5.6 kmh 29.84 in1010.5 mb - 0.00 in0.0 mm 0.00 in0.0 mm
08:05 AM 73.7°F23.2°C 66.8°F19.3°C 79% 2.3 mph ESE3.7 kmh ESE 3.5 mph5.6 kmh 29.84 in1010.5 mb - 0.00 in0.0 mm 0.00 in0.0 mm
08:10 AM 73.9°F23.3°C 67.3°F19.6°C 80% 1.2 mph ESE1.9 kmh ESE 3.5 mph5.6 kmh 29.84 in1010.5 mb - 0.00 in0.0 mm 0.00 in0.0 mm
08:15 AM 74.0°F23.3°C 67.1°F19.5°C 79% 3.5 mph E5.6 kmh E 4.6 mph7.4 kmh 29.84 in1010.5 mb - 0.00 in0.0 mm 0.00 in0.0 mm
08:20 AM 74.6°F23.7°C 67.3°F19.6°C 78% 2.3 mph SE3.7 kmh SE 3.5 mph5.6 kmh 29.84 in1010.5 mb - 0.00 in0.0 mm 0.00 in0.0 mm
08:25 AM 74.8°F23.8°C 67.1°F19.5°C 77% 2.3 mph ESE3.7 kmh ESE 3.5 mph5.6 kmh 29.84 in1010.5 mb - 0.00 in0.0 mm 0.00 in0.0 mm
08:30 AM 74.5°F23.6°C 67.2°F19.6°C 78% 3.5 mph SE5.6 kmh SE 4.6 mph7.4 kmh 29.83 in1010.2 mb - 0.00 in0.0 mm 0.00 in0.0 mm
08:35 AM 74.4°F23.6°C 66.7°F19.3°C 77% 2.3 mph ESE3.7 kmh ESE 3.5 mph5.6 kmh 29.83 in1010.2 mb - 0.00 in0.0 mm 0.00 in0.0 mm
08:40 AM 74.5°F23.6°C 67.2°F19.6°C 78% 2.3 mph SE3.7 kmh SE 3.5 mph5.6 kmh 29.83 in1010.2 mb - 0.00 in0.0 mm 0.00 in0.0 mm
08:45 AM 74.6°F23.7°C 66.9°F19.4°C 77% 2.3 mph SE3.7 kmh SE 3.5 mph5.6 kmh 29.83 in1010.2 mb - 0.00 in0.0 mm 0.00 in0.0 mm
08:50 AM 74.6°F23.7°C 66.9°F19.4°C 77% 1.2 mph SE1.9 kmh SE 3.5 mph5.6 kmh 29.83 in1010.2 mb - 0.00 in0.0 mm 0.00 in0.0 mm
08:55 AM 74.8°F23.8°C 67.5°F19.7°C 78% 3.5 mph E5.6 kmh E 5.8 mph9.3 kmh 29.83 in1010.2 mb - 0.00 in0.0 mm 0.00 in0.0 mm
09:00 AM 74.9°F23.8°C 67.2°F19.6°C 77% 4.6 mph E7.4 kmh E 5.8 mph9.3 kmh 29.83 in1010.2 mb - 0.00 in0.0 mm 0.00 in0.0 mm
09:05 AM 74.9°F23.8°C 67.2°F19.6°C 77% 2.3 mph E3.7 kmh E 4.6 mph7.4 kmh 29.83 in1010.2 mb - 0.00 in0.0 mm 0.00 in0.0 mm
09:10 AM 75.1°F23.9°C 67.8°F19.9°C 78% 2.3 mph ESE3.7 kmh ESE 6.9 mph11.1 kmh 29.83 in1010.2 mb - 0.00 in0.0 mm 0.00 in0.0 mm
09:15 AM 75.3°F24.1°C 67.6°F19.8°C 77% 2.3 mph ESE3.7 kmh ESE 4.6 mph7.4 kmh 29.83 in1010.2 mb - 0.00 in0.0 mm 0.00 in0.0 mm
09:20 AM 75.6°F24.2°C 67.9°F19.9°C 77% 3.5 mph ESE5.6 kmh ESE 4.6 mph7.4 kmh 29.83 in1010.2 mb - 0.00 in0.0 mm 0.00 in0.0 mm
09:25 AM 75.8°F24.3°C 67.3°F19.6°C 75% 2.3 mph ESE3.7 kmh ESE 3.5 mph5.6 kmh 29.83 in1010.2 mb - 0.00 in0.0 mm 0.00 in0.0 mm
09:30 AM 75.9°F24.4°C 67.4°F19.7°C 75% 2.3 mph E3.7 kmh E 4.6 mph7.4 kmh 29.83 in1010.2 mb - 0.00 in0.0 mm 0.00 in0.0 mm
09:35 AM 76.1°F24.5°C 67.2°F19.6°C 74% 3.5 mph E5.6 kmh E 5.8 mph9.3 kmh 29.84 in1010.5 mb - 0.00 in0.0 mm 0.00 in0.0 mm
09:40 AM 76.3°F24.6°C 67.4°F19.7°C 74% 4.6 mph ESE7.4 kmh ESE 3.5 mph5.6 kmh 29.83 in1010.2 mb - 0.00 in0.0 mm 0.00 in0.0 mm
09:45 AM 76.4°F24.7°C 67.5°F19.7°C 74% 3.5 mph ESE5.6 kmh ESE 4.6 mph7.4 kmh 29.84 in1010.5 mb - 0.00 in0.0 mm 0.00 in0.0 mm
09:50 AM 76.5°F24.7°C 68.0°F20.0°C 75% 2.3 mph NE3.7 kmh NE 3.5 mph5.6 kmh 29.83 in1010.2 mb - 0.00 in0.0 mm 0.00 in0.0 mm
09:55 AM 76.5°F24.7°C 67.6°F19.8°C 74% 2.3 mph ESE3.7 kmh ESE 3.5 mph5.6 kmh 29.83 in1010.2 mb - 0.00 in0.0 mm 0.00 in0.0 mm
10:00 AM 76.8°F24.9°C 67.5°F19.7°C 73% 4.6 mph E7.4 kmh E 5.8 mph9.3 kmh 29.83 in1010.2 mb - 0.00 in0.0 mm 0.00 in0.0 mm
10:05 AM 76.9°F24.9°C 67.6°F19.8°C 73% 3.5 mph ENE5.6 kmh ENE 8.1 mph13.0 kmh 29.82 in1009.8 mb - 0.00 in0.0 mm 0.00 in0.0 mm
10:10 AM 77.0°F25.0°C 67.7°F19.8°C 73% 3.5 mph NNE5.6 kmh NNE 4.6 mph7.4 kmh 29.82 in1009.8 mb - 0.00 in0.0 mm 0.00 in0.0 mm
10:15 AM 77.5°F25.3°C 68.1°F20.1°C 73% 5.8 mph E9.3 kmh E 8.1 mph13.0 kmh 29.83 in1010.2 mb - 0.00 in0.0 mm 0.00 in0.0 mm
10:20 AM 77.9°F25.5°C 68.1°F20.1°C 72% 3.5 mph ENE5.6 kmh ENE 5.8 mph9.3 kmh 29.83 in1010.2 mb - 0.00 in0.0 mm 0.00 in0.0 mm
10:25 AM 78.0°F25.6°C 68.2°F20.1°C 72% 2.3 mph ESE3.7 kmh ESE 5.8 mph9.3 kmh 29.83 in1010.2 mb - 0.00 in0.0 mm 0.00 in0.0 mm
10:30 AM 78.2°F25.7°C 68.0°F20.0°C 71% 3.5 mph ESE5.6 kmh ESE 8.1 mph13.0 kmh 29.83 in1010.2 mb - 0.00 in0.0 mm 0.00 in0.0 mm
10:35 AM 78.8°F26.0°C 68.6°F20.3°C 71% 3.5 mph E5.6 kmh E 5.8 mph9.3 kmh 29.83 in1010.2 mb - 0.00 in0.0 mm 0.00 in0.0 mm
10:40 AM 79.4°F26.3°C 69.2°F20.7°C 71% 2.3 mph ESE3.7 kmh ESE 6.9 mph11.1 kmh 29.83 in1010.2 mb - 0.00 in0.0 mm 0.00 in0.0 mm
10:45 AM 79.9°F26.6°C 69.3°F20.7°C 70% 4.6 mph SE7.4 kmh SE 11.5 mph18.5 kmh 29.82 in1009.8 mb - 0.00 in0.0 mm 0.00 in0.0 mm
10:50 AM 79.8°F26.6°C 68.7°F20.4°C 69% 5.8 mph E9.3 kmh E 11.5 mph18.5 kmh 29.82 in1009.8 mb - 0.00 in0.0 mm 0.00 in0.0 mm
10:55 AM 80.2°F26.8°C 69.1°F20.6°C 69% 8.1 mph ESE13.0 kmh ESE 11.5 mph18.5 kmh 29.82 in1009.8 mb - 0.00 in0.0 mm 0.00 in0.0 mm
11:00 AM 80.2°F26.8°C 69.1°F20.6°C 69% 5.8 mph SE9.3 kmh SE 9.2 mph14.8 kmh 29.82 in1009.8 mb - 0.00 in0.0 mm 0.00 in0.0 mm
11:05 AM 80.1°F26.7°C 69.0°F20.6°C 69% 3.5 mph ESE5.6 kmh ESE 8.1 mph13.0 kmh 29.82 in1009.8 mb - 0.00 in0.0 mm 0.00 in0.0 mm
11:10 AM 80.1°F26.7°C 69.0°F20.6°C 69% 4.6 mph SE7.4 kmh SE 9.2 mph14.8 kmh 29.82 in1009.8 mb - 0.00 in0.0 mm 0.00 in0.0 mm
11:15 AM 80.2°F26.8°C 69.1°F20.6°C 69% 10.4 mph ESE16.7 kmh ESE 15.0 mph24.1 kmh 29.81 in1009.5 mb - 0.00 in0.0 mm 0.00 in0.0 mm
11:20 AM 80.4°F26.9°C 68.9°F20.5°C 68% 5.8 mph SE9.3 kmh SE 11.5 mph18.5 kmh 29.81 in1009.5 mb - 0.00 in0.0 mm 0.00 in0.0 mm
11:25 AM 80.7°F27.1°C 68.7°F20.4°C 67% 8.1 mph E13.0 kmh E 10.4 mph16.7 kmh 29.81 in1009.5 mb - 0.00 in0.0 mm 0.00 in0.0 mm
11:30 AM 80.6°F27.0°C 68.6°F20.3°C 67% 6.9 mph ESE11.1 kmh ESE 10.4 mph16.7 kmh 29.81 in1009.5 mb - 0.00 in0.0 mm 0.00 in0.0 mm
11:35 AM 80.8°F27.1°C 69.3°F20.7°C 68% 5.8 mph SE9.3 kmh SE 10.4 mph16.7 kmh 29.81 in1009.5 mb - 0.00 in0.0 mm 0.00 in0.0 mm
11:40 AM 80.9°F27.2°C 69.3°F20.7°C 68% 6.9 mph SE11.1 kmh SE 12.7 mph20.4 kmh 29.80 in1009.1 mb - 0.00 in0.0 mm 0.00 in0.0 mm
11:45 AM 80.8°F27.1°C 69.2°F20.7°C 68% 4.6 mph SE7.4 kmh SE 9.2 mph14.8 kmh 29.80 in1009.1 mb - 0.00 in0.0 mm 0.00 in0.0 mm
11:50 AM 81.4°F27.4°C 69.9°F21.1°C 68% 5.8 mph ESE9.3 kmh ESE 9.2 mph14.8 kmh 29.80 in1009.1 mb - 0.00 in0.0 mm 0.00 in0.0 mm
11:55 AM 81.4°F27.4°C 69.4°F20.8°C 67% 4.6 mph ESE7.4 kmh ESE 9.2 mph14.8 kmh 29.80 in1009.1 mb - 0.00 in0.0 mm 0.00 in0.0 mm
12:00 PM 81.8°F27.7°C 69.8°F21.0°C 67% 3.5 mph SE5.6 kmh SE 6.9 mph11.1 kmh 29.80 in1009.1 mb - 0.00 in0.0 mm 0.00 in0.0 mm
12:05 PM 81.9°F27.7°C 69.9°F21.1°C 67% 6.9 mph ESE11.1 kmh ESE 11.5 mph18.5 kmh 29.80 in1009.1 mb - 0.00 in0.0 mm 0.00 in0.0 mm
12:10 PM 82.0°F27.8°C 69.1°F20.6°C 65% 6.9 mph SE11.1 kmh SE 9.2 mph14.8 kmh 29.80 in1009.1 mb - 0.00 in0.0 mm 0.00 in0.0 mm
12:15 PM 81.8°F27.7°C 69.4°F20.8°C 66% 8.1 mph SE13.0 kmh SE 11.5 mph18.5 kmh 29.80 in1009.1 mb - 0.00 in0.0 mm 0.00 in0.0 mm
12:20 PM 81.5°F27.5°C 69.0°F20.6°C 66% 6.9 mph SE11.1 kmh SE 8.1 mph13.0 kmh 29.80 in1009.1 mb - 0.00 in0.0 mm 0.00 in0.0 mm
12:25 PM 81.7°F27.6°C 68.8°F20.4°C 65% 8.1 mph SE13.0 kmh SE 9.2 mph14.8 kmh 29.79 in1008.8 mb - 0.00 in0.0 mm 0.00 in0.0 mm
12:30 PM 82.0°F27.8°C 69.5°F20.8°C 66% 6.9 mph SE11.1 kmh SE 11.5 mph18.5 kmh 29.79 in1008.8 mb - 0.00 in0.0 mm 0.00 in0.0 mm
12:35 PM 82.3°F27.9°C 69.8°F21.0°C 66% 5.8 mph E9.3 kmh E 8.1 mph13.0 kmh 29.79 in1008.8 mb - 0.00 in0.0 mm 0.00 in0.0 mm
12:40 PM 82.7°F28.2°C 69.7°F20.9°C 65% 4.6 mph ENE7.4 kmh ENE 9.2 mph14.8 kmh 29.79 in1008.8 mb - 0.00 in0.0 mm 0.00 in0.0 mm
12:45 PM 82.9°F28.3°C 69.5°F20.8°C 64% 4.6 mph ESE7.4 kmh ESE 8.1 mph13.0 kmh 29.79 in1008.8 mb - 0.00 in0.0 mm 0.00 in0.0 mm
12:50 PM 83.5°F28.6°C 70.0°F21.1°C 64% 5.8 mph SE9.3 kmh SE 9.2 mph14.8 kmh 29.79 in1008.8 mb - 0.00 in0.0 mm 0.00 in0.0 mm
12:55 PM 83.0°F28.3°C 69.1°F20.6°C 63% 8.1 mph ESE13.0 kmh ESE 11.5 mph18.5 kmh 29.79 in1008.8 mb - 0.00 in0.0 mm 0.00 in0.0 mm
01:00 PM 83.0°F28.3°C 68.6°F20.3°C 62% 8.1 mph SE13.0 kmh SE 10.4 mph16.7 kmh 29.79 in1008.8 mb - 0.00 in0.0 mm 0.00 in0.0 mm
01:05 PM 83.1°F28.4°C 68.7°F20.4°C 62% 5.8 mph SE9.3 kmh SE 8.1 mph13.0 kmh 29.79 in1008.8 mb - 0.00 in0.0 mm 0.00 in0.0 mm
01:10 PM 83.3°F28.5°C 69.4°F20.8°C 63% 8.1 mph SE13.0 kmh SE 11.5 mph18.5 kmh 29.79 in1008.8 mb - 0.00 in0.0 mm 0.00 in0.0 mm
01:15 PM 83.8°F28.8°C 69.8°F21.0°C 63% 2.3 mph E3.7 kmh E 8.1 mph13.0 kmh 29.79 in1008.8 mb - 0.00 in0.0 mm 0.00 in0.0 mm
01:20 PM 84.3°F29.1°C 68.9°F20.5°C 60% 5.8 mph SE9.3 kmh SE 9.2 mph14.8 kmh 29.78 in1008.5 mb - 0.00 in0.0 mm 0.00 in0.0 mm
01:25 PM 83.8°F28.8°C 69.4°F20.8°C 62% 5.8 mph ENE9.3 kmh ENE 9.2 mph14.8 kmh 29.78 in1008.5 mb - 0.00 in0.0 mm 0.00 in0.0 mm
01:30 PM 83.7°F28.7°C 69.3°F20.7°C 62% 4.6 mph S7.4 kmh S 3.5 mph5.6 kmh 29.78 in1008.5 mb - 0.00 in0.0 mm 0.00 in0.0 mm
01:35 PM 83.6°F28.7°C 69.2°F20.7°C 62% 5.8 mph SE9.3 kmh SE 9.2 mph14.8 kmh 29.78 in1008.5 mb - 0.00 in0.0 mm 0.00 in0.0 mm
01:40 PM 83.2°F28.4°C 69.3°F20.7°C 63% 4.6 mph SE7.4 kmh SE 11.5 mph18.5 kmh 29.77 in1008.1 mb - 0.00 in0.0 mm 0.00 in0.0 mm
01:45 PM 83.4°F28.6°C 69.5°F20.8°C 63% 9.2 mph SE14.8 kmh SE 11.5 mph18.5 kmh 29.77 in1008.1 mb - 0.00 in0.0 mm 0.00 in0.0 mm
01:50 PM 83.0°F28.3°C 68.7°F20.4°C 62% 6.9 mph SE11.1 kmh SE 9.2 mph14.8 kmh 29.77 in1008.1 mb - 0.00 in0.0 mm 0.00 in0.0 mm
01:55 PM 83.8°F28.8°C 69.8°F21.0°C 63% 6.9 mph E11.1 kmh E 10.4 mph16.7 kmh 29.77 in1008.1 mb - 0.00 in0.0 mm 0.00 in0.0 mm
02:00 PM 83.7°F28.7°C 69.3°F20.7°C 62% 8.1 mph ENE13.0 kmh ENE 10.4 mph16.7 kmh 29.76 in1007.8 mb - 0.00 in0.0 mm 0.00 in0.0 mm
02:05 PM 83.6°F28.7°C 69.7°F20.9°C 63% 6.9 mph ESE11.1 kmh ESE 9.2 mph14.8 kmh 29.77 in1008.1 mb - 0.00 in0.0 mm 0.00 in0.0 mm
02:10 PM 83.4°F28.6°C 69.5°F20.8°C 63% 5.8 mph ESE9.3 kmh ESE 8.1 mph13.0 kmh 29.77 in1008.1 mb - 0.00 in0.0 mm 0.00 in0.0 mm
02:15 PM 83.1°F28.4°C 69.7°F20.9°C 64% 6.9 mph SE11.1 kmh SE 11.5 mph18.5 kmh 29.76 in1007.8 mb - 0.00 in0.0 mm 0.00 in0.0 mm
02:20 PM 83.2°F28.4°C 70.2°F21.2°C 65% 5.8 mph E9.3 kmh E 12.7 mph20.4 kmh 29.76 in1007.8 mb - 0.00 in0.0 mm 0.00 in0.0 mm
02:25 PM 83.7°F28.7°C 69.8°F21.0°C 63% 6.9 mph SE11.1 kmh SE 10.4 mph16.7 kmh 29.75 in1007.5 mb - 0.00 in0.0 mm 0.00 in0.0 mm
02:30 PM 83.9°F28.8°C 69.5°F20.8°C 62% 4.6 mph ESE7.4 kmh ESE 9.2 mph14.8 kmh 29.75 in1007.5 mb - 0.00 in0.0 mm 0.00 in0.0 mm
02:35 PM 84.3°F29.1°C 69.9°F21.1°C 62% 2.3 mph E3.7 kmh E 5.8 mph9.3 kmh 29.75 in1007.5 mb - 0.00 in0.0 mm 0.00 in0.0 mm
02:40 PM 84.6°F29.2°C 69.7°F20.9°C 61% 4.6 mph SE7.4 kmh SE 4.6 mph7.4 kmh 29.75 in1007.5 mb - 0.00 in0.0 mm 0.00 in0.0 mm
02:45 PM 84.6°F29.2°C 69.2°F20.7°C 60% 4.6 mph SE7.4 kmh SE 8.1 mph13.0 kmh 29.75 in1007.5 mb - 0.00 in0.0 mm 0.00 in0.0 mm
02:50 PM 84.7°F29.3°C 70.2°F21.2°C 62% 3.5 mph ESE5.6 kmh ESE 4.6 mph7.4 kmh 29.75 in1007.5 mb - 0.00 in0.0 mm 0.00 in0.0 mm
02:55 PM 84.7°F29.3°C 70.2°F21.2°C 62% 4.6 mph SE7.4 kmh SE 3.5 mph5.6 kmh 29.75 in1007.5 mb - 0.00 in0.0 mm 0.00 in0.0 mm
03:00 PM 84.5°F29.2°C 69.6°F20.9°C 61% 6.9 mph SE11.1 kmh SE 9.2 mph14.8 kmh 29.74 in1007.1 mb - 0.00 in0.0 mm 0.00 in0.0 mm
03:05 PM 84.1°F28.9°C 69.7°F20.9°C 62% 5.8 mph ESE9.3 kmh ESE 8.1 mph13.0 kmh 29.74 in1007.1 mb - 0.00 in0.0 mm 0.00 in0.0 mm
03:10 PM 84.0°F28.9°C 70.0°F21.1°C 63% 5.8 mph E9.3 kmh E 10.4 mph16.7 kmh 29.74 in1007.1 mb - 0.00 in0.0 mm 0.00 in0.0 mm
03:15 PM 83.8°F28.8°C 69.8°F21.0°C 63% 8.1 mph ENE13.0 kmh ENE 11.5 mph18.5 kmh 29.74 in1007.1 mb - 0.00 in0.0 mm 0.00 in0.0 mm
03:20 PM 83.6°F28.7°C 69.7°F20.9°C 63% 3.5 mph SE5.6 kmh SE 4.6 mph7.4 kmh 29.74 in1007.1 mb - 0.00 in0.0 mm 0.00 in0.0 mm
03:25 PM 83.8°F28.8°C 69.9°F21.1°C 63% 5.8 mph E9.3 kmh E 11.5 mph18.5 kmh 29.73 in1006.8 mb - 0.00 in0.0 mm 0.00 in0.0 mm
03:30 PM 83.6°F28.7°C 69.7°F20.9°C 63% 6.9 mph E11.1 kmh E 9.2 mph14.8 kmh 29.73 in1006.8 mb - 0.00 in0.0 mm 0.00 in0.0 mm
03:35 PM 83.4°F28.6°C 69.5°F20.8°C 63% 5.8 mph ESE9.3 kmh ESE 9.2 mph14.8 kmh 29.73 in1006.8 mb - 0.00 in0.0 mm 0.00 in0.0 mm
03:40 PM 83.4°F28.6°C 69.9°F21.1°C 64% 3.5 mph SE5.6 kmh SE 8.1 mph13.0 kmh 29.73 in1006.8 mb - 0.00 in0.0 mm 0.00 in0.0 mm
03:45 PM 83.3°F28.5°C 69.8°F21.0°C 64% 4.6 mph ESE7.4 kmh ESE 6.9 mph11.1 kmh 29.73 in1006.8 mb - 0.00 in0.0 mm 0.00 in0.0 mm
03:50 PM 83.2°F28.4°C 69.8°F21.0°C 64% 5.8 mph E9.3 kmh E 6.9 mph11.1 kmh 29.72 in1006.4 mb - 0.00 in0.0 mm 0.00 in0.0 mm
03:55 PM 83.2°F28.4°C 69.8°F21.0°C 64% 6.9 mph E11.1 kmh E 10.4 mph16.7 kmh 29.72 in1006.4 mb - 0.00 in0.0 mm 0.00 in0.0 mm
04:00 PM 83.0°F28.3°C 70.0°F21.1°C 65% 6.9 mph E11.1 kmh E 11.5 mph18.5 kmh 29.72 in1006.4 mb - 0.00 in0.0 mm 0.00 in0.0 mm
04:05 PM 82.9°F28.3°C 69.9°F21.1°C 65% 6.9 mph ESE11.1 kmh ESE 9.2 mph14.8 kmh 29.71 in1006.1 mb - 0.00 in0.0 mm 0.00 in0.0 mm
04:10 PM 82.7°F28.2°C 70.2°F21.2°C 66% 4.6 mph ESE7.4 kmh ESE 9.2 mph14.8 kmh 29.70 in1005.8 mb - 0.00 in0.0 mm 0.00 in0.0 mm
04:15 PM 82.6°F28.1°C 70.1°F21.2°C 66% 4.6 mph ESE7.4 kmh ESE 9.2 mph14.8 kmh 29.69 in1005.4 mb - 0.00 in0.0 mm 0.00 in0.0 mm
04:20 PM 82.5°F28.1°C 70.0°F21.1°C 66% 6.9 mph SE11.1 kmh SE 9.2 mph14.8 kmh 29.69 in1005.4 mb - 0.00 in0.0 mm 0.00 in0.0 mm
04:25 PM 82.5°F28.1°C 70.0°F21.1°C 66% 6.9 mph SE11.1 kmh SE 11.5 mph18.5 kmh 29.69 in1005.4 mb - 0.00 in0.0 mm 0.00 in0.0 mm
04:30 PM 82.7°F28.2°C 70.2°F21.2°C 66% 6.9 mph SE11.1 kmh SE 10.4 mph16.7 kmh 29.69 in1005.4 mb - 0.00 in0.0 mm 0.00 in0.0 mm
04:35 PM 82.9°F28.3°C 70.4°F21.3°C 66% 4.6 mph SW7.4 kmh SW 9.2 mph14.8 kmh 29.71 in1006.1 mb - 0.00 in0.0 mm 0.00 in0.0 mm
04:40 PM 83.2°F28.4°C 70.6°F21.4°C 66% 3.5 mph WNW5.6 kmh WNW 4.6 mph7.4 kmh 29.72 in1006.4 mb - 0.00 in0.0 mm 0.00 in0.0 mm
04:45 PM 83.3°F28.5°C 70.8°F21.6°C 66% 3.5 mph SW5.6 kmh SW 3.5 mph5.6 kmh 29.71 in1006.1 mb - 0.00 in0.0 mm 0.00 in0.0 mm
04:50 PM 83.4°F28.6°C 70.4°F21.3°C 65% 2.3 mph SW3.7 kmh SW 3.5 mph5.6 kmh 29.72 in1006.4 mb - 0.00 in0.0 mm 0.00 in0.0 mm
04:55 PM 83.5°F28.6°C 70.0°F21.1°C 64% 1.2 mph WSW1.9 kmh WSW 1.2 mph1.9 kmh 29.73 in1006.8 mb - 0.00 in0.0 mm 0.00 in0.0 mm
05:00 PM 83.6°F28.7°C 70.1°F21.2°C 64% 2.3 mph NW3.7 kmh NW 3.5 mph5.6 kmh 29.73 in1006.8 mb - 0.00 in0.0 mm 0.00 in0.0 mm
05:05 PM 83.3°F28.5°C 69.8°F21.0°C 64% 12.7 mph NW20.4 kmh NW 20.7 mph33.3 kmh 29.74 in1007.1 mb - 0.00 in0.0 mm 0.00 in0.0 mm
05:10 PM 80.6°F27.0°C 67.7°F19.8°C 65% 10.4 mph N16.7 kmh N 13.8 mph22.2 kmh 29.74 in1007.1 mb - 0.00 in0.0 mm 0.00 in0.0 mm
05:15 PM 78.1°F25.6°C 67.5°F19.7°C 70% 9.2 mph N14.8 kmh N 18.4 mph29.6 kmh 29.75 in1007.5 mb - 0.00 in0.0 mm 0.00 in0.0 mm
05:20 PM 76.5°F24.7°C 67.2°F19.6°C 73% 6.9 mph N11.1 kmh N 10.4 mph16.7 kmh 29.75 in1007.5 mb - 0.00 in0.0 mm 0.00 in0.0 mm
05:25 PM 75.7°F24.3°C 67.3°F19.6°C 75% 8.1 mph N13.0 kmh N 11.5 mph18.5 kmh 29.75 in1007.5 mb - 0.00 in0.0 mm 0.00 in0.0 mm
05:30 PM 75.1°F23.9°C 67.4°F19.7°C 77% 6.9 mph NNE11.1 kmh NNE 10.4 mph16.7 kmh 29.75 in1007.5 mb - 0.00 in0.0 mm 0.00 in0.0 mm
05:35 PM 74.7°F23.7°C 67.4°F19.7°C 78% 5.8 mph NNE9.3 kmh NNE 11.5 mph18.5 kmh 29.74 in1007.1 mb - 0.00 in0.0 mm 0.00 in0.0 mm
05:40 PM 74.4°F23.6°C 67.1°F19.5°C 78% 6.9 mph N11.1 kmh N 9.2 mph14.8 kmh 29.74 in1007.1 mb - 0.00 in0.0 mm 0.00 in0.0 mm
05:45 PM 74.2°F23.4°C 66.9°F19.4°C 78% 8.1 mph N13.0 kmh N 9.2 mph14.8 kmh 29.74 in1007.1 mb - 0.00 in0.0 mm 0.00 in0.0 mm
05:50 PM 74.1°F23.4°C 66.8°F19.3°C 78% 5.8 mph N9.3 kmh N 8.1 mph13.0 kmh 29.74 in1007.1 mb - 0.00 in0.0 mm 0.00 in0.0 mm
05:55 PM 74.0°F23.3°C 66.3°F19.1°C 77% 5.8 mph NNE9.3 kmh NNE 10.4 mph16.7 kmh 29.75 in1007.5 mb - 0.00 in0.0 mm 0.00 in0.0 mm
06:00 PM 74.1°F23.4°C 66.4°F19.1°C 77% 4.6 mph NNE7.4 kmh NNE 6.9 mph11.1 kmh 29.74 in1007.1 mb - 0.00 in0.0 mm 0.00 in0.0 mm
06:05 PM 74.2°F23.4°C 66.5°F19.2°C 77% 4.6 mph NE7.4 kmh NE 8.1 mph13.0 kmh 29.74 in1007.1 mb - 0.00 in0.0 mm 0.00 in0.0 mm
06:10 PM 74.3°F23.5°C 66.2°F19.0°C 76% 3.5 mph NE5.6 kmh NE 3.5 mph5.6 kmh 29.74 in1007.1 mb - 0.00 in0.0 mm 0.00 in0.0 mm
06:15 PM 74.4°F23.6°C 66.3°F19.1°C 76% 4.6 mph NE7.4 kmh NE 6.9 mph11.1 kmh 29.74 in1007.1 mb - 0.00 in0.0 mm 0.00 in0.0 mm
06:20 PM 74.3°F23.5°C 66.6°F19.2°C 77% 3.5 mph NE5.6 kmh NE 4.6 mph7.4 kmh 29.75 in1007.5 mb - 0.00 in0.0 mm 0.00 in0.0 mm
06:25 PM 74.2°F23.4°C 66.5°F19.2°C 77% 5.8 mph NE9.3 kmh NE 11.5 mph18.5 kmh 29.75 in1007.5 mb - 0.00 in0.0 mm 0.00 in0.0 mm
06:30 PM 73.9°F23.3°C 66.6°F19.2°C 78% 4.6 mph N7.4 kmh N 4.6 mph7.4 kmh 29.74 in1007.1 mb - 0.00 in0.0 mm 0.00 in0.0 mm
06:35 PM 73.7°F23.2°C 66.8°F19.3°C 79% 3.5 mph 5.6 kmh 6.9 mph11.1 kmh 29.74 in1007.1 mb - 0.00 in0.0 mm 0.00 in0.0 mm
06:40 PM 73.4°F23.0°C 66.9°F19.4°C 80% 4.6 mph NNE7.4 kmh NNE 8.1 mph13.0 kmh 29.74 in1007.1 mb - 0.00 in0.0 mm 0.00 in0.0 mm
06:45 PM 73.2°F22.9°C 67.0°F19.4°C 81% 3.5 mph N5.6 kmh N 5.8 mph9.3 kmh 29.74 in1007.1 mb - 0.00 in0.0 mm 0.00 in0.0 mm
06:50 PM 73.1°F22.8°C 67.2°F19.6°C 82% 5.8 mph N9.3 kmh N 8.1 mph13.0 kmh 29.74 in1007.1 mb - 0.00 in0.0 mm 0.00 in0.0 mm
06:55 PM 72.9°F22.7°C 67.1°F19.5°C 82% 3.5 mph N5.6 kmh N 6.9 mph11.1 kmh 29.74 in1007.1 mb - 0.00 in0.0 mm 0.00 in0.0 mm
07:00 PM 72.8°F22.7°C 67.3°F19.6°C 83% 3.5 mph N5.6 kmh N 6.9 mph11.1 kmh 29.74 in1007.1 mb - 0.00 in0.0 mm 0.00 in0.0 mm
07:05 PM 72.7°F22.6°C 67.2°F19.6°C 83% 4.6 mph N7.4 kmh N 4.6 mph7.4 kmh 29.73 in1006.8 mb - 0.00 in0.0 mm 0.00 in0.0 mm
07:10 PM 72.7°F22.6°C 67.6°F19.8°C 84% 3.5 mph ENE5.6 kmh ENE 6.9 mph11.1 kmh 29.73 in1006.8 mb - 0.00 in0.0 mm 0.00 in0.0 mm
07:15 PM 72.6°F22.6°C 67.5°F19.7°C 84% 3.5 mph N5.6 kmh N 4.6 mph7.4 kmh 29.73 in1006.8 mb - 0.00 in0.0 mm 0.00 in0.0 mm
07:20 PM 72.7°F22.6°C 67.5°F19.7°C 84% 4.6 mph N7.4 kmh N 5.8 mph9.3 kmh 29.73 in1006.8 mb - 0.00 in0.0 mm 0.00 in0.0 mm
07:25 PM 72.6°F22.6°C 67.5°F19.7°C 84% 3.5 mph N5.6 kmh N 5.8 mph9.3 kmh 29.74 in1007.1 mb - 0.00 in0.0 mm 0.00 in0.0 mm
07:30 PM 72.5°F22.5°C 67.7°F19.8°C 85% 2.3 mph NNE3.7 kmh NNE 3.5 mph5.6 kmh 29.73 in1006.8 mb - 0.00 in0.0 mm 0.00 in0.0 mm
07:35 PM 72.6°F22.6°C 67.8°F19.9°C 85% 1.2 mph N1.9 kmh N 3.5 mph5.6 kmh 29.74 in1007.1 mb - 0.00 in0.0 mm 0.00 in0.0 mm
07:40 PM 72.5°F22.5°C 67.7°F19.8°C 85% 8.1 mph NW13.0 kmh NW 11.5 mph18.5 kmh 29.76 in1007.8 mb - 0.00 in0.0 mm 0.00 in0.0 mm
07:45 PM 72.5°F22.5°C 67.4°F19.7°C 84% 11.5 mph N18.5 kmh N 13.8 mph22.2 kmh 29.77 in1008.1 mb - 0.00 in0.0 mm 0.00 in0.0 mm
07:50 PM 72.4°F22.4°C 66.2°F19.0°C 81% 8.1 mph NNW13.0 kmh NNW 8.1 mph13.0 kmh 29.76 in1007.8 mb - 0.00 in0.0 mm 0.00 in0.0 mm
07:55 PM 72.5°F22.5°C 66.0°F18.9°C 80% 2.3 mph NW3.7 kmh NW 4.6 mph7.4 kmh 29.75 in1007.5 mb - 0.00 in0.0 mm 0.00 in0.0 mm
08:00 PM 72.8°F22.7°C 65.9°F18.8°C 79% 5.8 mph N9.3 kmh N 8.1 mph13.0 kmh 29.76 in1007.8 mb - 0.00 in0.0 mm 0.00 in0.0 mm
08:05 PM 73.3°F22.9°C 65.6°F18.7°C 77% 6.9 mph N11.1 kmh N 9.2 mph14.8 kmh 29.76 in1007.8 mb - 0.00 in0.0 mm 0.00 in0.0 mm
08:10 PM 73.1°F22.8°C 65.9°F18.8°C 78% 8.1 mph N13.0 kmh N 10.4 mph16.7 kmh 29.77 in1008.1 mb - 0.00 in0.0 mm 0.00 in0.0 mm
08:15 PM 72.9°F22.7°C 66.0°F18.9°C 79% 8.1 mph N13.0 kmh N 12.7 mph20.4 kmh 29.76 in1007.8 mb - 0.00 in0.0 mm 0.00 in0.0 mm
08:20 PM 72.3°F22.4°C 66.1°F18.9°C 81% 8.1 mph NNW13.0 kmh NNW 11.5 mph18.5 kmh 29.77 in1008.1 mb - 0.00 in0.0 mm 0.00 in0.0 mm
08:25 PM 71.8°F22.1°C 66.0°F18.9°C 82% 8.1 mph N13.0 kmh N 8.1 mph13.0 kmh 29.77 in1008.1 mb - 0.00 in0.0 mm 0.00 in0.0 mm
08:30 PM 71.2°F21.8°C 65.7°F18.7°C 83% 9.2 mph N14.8 kmh N 11.5 mph18.5 kmh 29.76 in1007.8 mb - 0.00 in0.0 mm 0.00 in0.0 mm
08:35 PM 70.6°F21.4°C 65.6°F18.7°C 84% 6.9 mph N11.1 kmh N 9.2 mph14.8 kmh 29.77 in1008.1 mb - 0.00 in0.0 mm 0.00 in0.0 mm
08:40 PM 70.4°F21.3°C 65.3°F18.5°C 84% 4.6 mph NNE7.4 kmh NNE 10.4 mph16.7 kmh 29.77 in1008.1 mb - 0.00 in0.0 mm 0.00 in0.0 mm
08:45 PM 70.3°F21.3°C 65.6°F18.7°C 85% 4.6 mph NE7.4 kmh NE 6.9 mph11.1 kmh 29.77 in1008.1 mb - 0.00 in0.0 mm 0.00 in0.0 mm
08:50 PM 70.1°F21.2°C 65.4°F18.6°C 85% 3.5 mph N5.6 kmh N 4.6 mph7.4 kmh 29.78 in1008.5 mb - 0.00 in0.0 mm 0.00 in0.0 mm
08:55 PM 70.1°F21.2°C 65.4°F18.6°C 85% 4.6 mph NNE7.4 kmh NNE 4.6 mph7.4 kmh 29.78 in1008.5 mb - 0.00 in0.0 mm 0.00 in0.0 mm
09:00 PM 70.1°F21.2°C 65.4°F18.6°C 85% 3.5 mph N5.6 kmh N 4.6 mph7.4 kmh 29.78 in1008.5 mb - 0.00 in0.0 mm 0.00 in0.0 mm
09:05 PM 70.1°F21.2°C 65.4°F18.6°C 85% 3.5 mph NE5.6 kmh NE 4.6 mph7.4 kmh 29.79 in1008.8 mb - 0.00 in0.0 mm 0.00 in0.0 mm
09:10 PM 70.1°F21.2°C 65.7°F18.7°C 86% 3.5 mph NE5.6 kmh NE 4.6 mph7.4 kmh 29.79 in1008.8 mb - 0.00 in0.0 mm 0.00 in0.0 mm
09:15 PM 70.0°F21.1°C 65.6°F18.7°C 86% 2.3 mph N3.7 kmh N 2.3 mph3.7 kmh 29.79 in1008.8 mb - 0.00 in0.0 mm 0.00 in0.0 mm
09:20 PM 70.0°F21.1°C 65.6°F18.7°C 86% 3.5 mph N5.6 kmh N 3.5 mph5.6 kmh 29.79 in1008.8 mb - 0.00 in0.0 mm 0.00 in0.0 mm
09:25 PM 70.0°F21.1°C 65.6°F18.7°C 86% 2.3 mph E3.7 kmh E 5.8 mph9.3 kmh 29.79 in1008.8 mb - 0.00 in0.0 mm 0.00 in0.0 mm
09:30 PM 70.0°F21.1°C 65.6°F18.7°C 86% 3.5 mph N5.6 kmh N 3.5 mph5.6 kmh 29.79 in1008.8 mb - 0.00 in0.0 mm 0.00 in0.0 mm
09:35 PM 69.9°F21.1°C 65.9°F18.8°C 87% 2.3 mph NE3.7 kmh NE 3.5 mph5.6 kmh 29.79 in1008.8 mb - 0.00 in0.0 mm 0.00 in0.0 mm
09:40 PM 69.9°F21.1°C 65.9°F18.8°C 87% 1.2 mph ENE1.9 kmh ENE 3.5 mph5.6 kmh 29.80 in1009.1 mb - 0.00 in0.0 mm 0.00 in0.0 mm
09:45 PM 69.9°F21.1°C 65.9°F18.8°C 87% 2.3 mph NE3.7 kmh NE 3.5 mph5.6 kmh 29.79 in1008.8 mb - 0.00 in0.0 mm 0.00 in0.0 mm
09:50 PM 69.9°F21.1°C 65.9°F18.8°C 87% 2.3 mph NE3.7 kmh NE 3.5 mph5.6 kmh 29.79 in1008.8 mb - 0.00 in0.0 mm 0.00 in0.0 mm
09:55 PM 69.9°F21.1°C 65.9°F18.8°C 87% 2.3 mph NE3.7 kmh NE 3.5 mph5.6 kmh 29.79 in1008.8 mb - 0.00 in0.0 mm 0.00 in0.0 mm
10:00 PM 69.9°F21.1°C 66.2°F19.0°C 88% 3.5 mph NNW5.6 kmh NNW 6.9 mph11.1 kmh 29.80 in1009.1 mb - 0.00 in0.0 mm 0.00 in0.0 mm
10:05 PM 69.9°F21.1°C 66.2°F19.0°C 88% 3.5 mph N5.6 kmh N 4.6 mph7.4 kmh 29.80 in1009.1 mb - 0.00 in0.0 mm 0.00 in0.0 mm
10:10 PM 69.8°F21.0°C 66.4°F19.1°C 89% 2.3 mph NE3.7 kmh NE 3.5 mph5.6 kmh 29.79 in1008.8 mb - 0.00 in0.0 mm 0.00 in0.0 mm
10:15 PM 69.8°F21.0°C 66.4°F19.1°C 89% 2.3 mph NE3.7 kmh NE 3.5 mph5.6 kmh 29.79 in1008.8 mb - 0.00 in0.0 mm 0.00 in0.0 mm
10:20 PM 69.7°F20.9°C 66.3°F19.1°C 89% 2.3 mph ENE3.7 kmh ENE 3.5 mph5.6 kmh 29.79 in1008.8 mb - 0.00 in0.0 mm 0.00 in0.0 mm
10:25 PM 69.7°F20.9°C 66.3°F19.1°C 89% 1.2 mph E1.9 kmh E 1.2 mph1.9 kmh 29.79 in1008.8 mb - 0.00 in0.0 mm 0.00 in0.0 mm
10:30 PM 69.7°F20.9°C 66.6°F19.2°C 90% 3.5 mph E5.6 kmh E 5.8 mph9.3 kmh 29.79 in1008.8 mb - 0.00 in0.0 mm 0.00 in0.0 mm
10:35 PM 69.7°F20.9°C 66.6°F19.2°C 90% 1.2 mph E1.9 kmh E 2.3 mph3.7 kmh 29.78 in1008.5 mb - 0.00 in0.0 mm 0.00 in0.0 mm
10:40 PM 69.7°F20.9°C 66.6°F19.2°C 90% 2.3 mph E3.7 kmh E 3.5 mph5.6 kmh 29.77 in1008.1 mb - 0.00 in0.0 mm 0.00 in0.0 mm
10:45 PM 69.6°F20.9°C 66.5°F19.2°C 90% 3.5 mph E5.6 kmh E 4.6 mph7.4 kmh 29.77 in1008.1 mb - 0.00 in0.0 mm 0.00 in0.0 mm
10:50 PM 69.6°F20.9°C 66.5°F19.2°C 90% Calm Calm -- 29.78 in1008.5 mb - 0.00 in0.0 mm 0.00 in0.0 mm
10:55 PM 69.6°F20.9°C 66.5°F19.2°C 90% 1.2 mph E1.9 kmh E 2.3 mph3.7 kmh 29.78 in1008.5 mb - 0.00 in0.0 mm 0.00 in0.0 mm
11:00 PM 69.6°F20.9°C 66.5°F19.2°C 90% 2.3 mph ESE3.7 kmh ESE 2.3 mph3.7 kmh 29.78 in1008.5 mb - 0.00 in0.0 mm 0.00 in0.0 mm
11:05 PM 69.6°F20.9°C 66.5°F19.2°C 90% Calm Calm 1.2 mph1.9 kmh 29.78 in1008.5 mb - 0.00 in0.0 mm 0.00 in0.0 mm
11:10 PM 69.5°F20.8°C 66.4°F19.1°C 90% 3.5 mph SE5.6 kmh SE 5.8 mph9.3 kmh 29.78 in1008.5 mb - 0.00 in0.0 mm 0.00 in0.0 mm
11:15 PM 69.5°F20.8°C 66.4°F19.1°C 90% 1.2 mph SE1.9 kmh SE 3.5 mph5.6 kmh 29.78 in1008.5 mb - 0.00 in0.0 mm 0.00 in0.0 mm
11:20 PM 69.6°F20.9°C 66.8°F19.3°C 91% 2.3 mph SE3.7 kmh SE 3.5 mph5.6 kmh 29.78 in1008.5 mb - 0.00 in0.0 mm 0.00 in0.0 mm
11:25 PM 69.5°F20.8°C 66.8°F19.3°C 91% 1.2 mph SE1.9 kmh SE 3.5 mph5.6 kmh 29.79 in1008.8 mb - 0.00 in0.0 mm 0.00 in0.0 mm
11:30 PM 69.5°F20.8°C 66.8°F19.3°C 91% Calm Calm 2.3 mph3.7 kmh 29.79 in1008.8 mb - 0.00 in0.0 mm 0.00 in0.0 mm
11:35 PM 69.6°F20.9°C 66.9°F19.4°C 91% 1.2 mph SE1.9 kmh SE 2.3 mph3.7 kmh 29.79 in1008.8 mb - 0.00 in0.0 mm 0.00 in0.0 mm
11:40 PM 69.5°F20.8°C 66.4°F19.1°C 90% Calm Calm -- 29.79 in1008.8 mb - 0.00 in0.0 mm 0.00 in0.0 mm
11:45 PM 69.5°F20.8°C 66.4°F19.1°C 90% Calm Calm -- 29.79 in1008.8 mb - 0.00 in0.0 mm 0.00 in0.0 mm
11:50 PM 69.6°F20.9°C 66.9°F19.4°C 91% 2.3 mph SSE3.7 kmh SSE 3.5 mph5.6 kmh 29.79 in1008.8 mb - 0.00 in0.0 mm 0.00 in0.0 mm
11:55 PM 69.6°F20.9°C 66.9°F19.4°C 91% Calm Calm -- 29.79 in1008.8 mb - 0.00 in0.0 mm 0.00 in0.0 mm